Time;durP1;ratioP1;P1;durP2;ratioP2;P2;SDS_P1;SDS_P2;PMS_P1;PMS_P2;Temp;Humidity;BMP_temperature;BMP_pressure;BME280_temperature;BME280_humidity;BME280_pressure;Samples;Min_cycle;Max_cycle;Signal;HPM_P1;HPM_P2
2022/10/03 00:01:09;;;;;;;8.90;1.65;;;13.10;99.90;;;;;;6262895;22;20076;-78
2022/10/03 00:03:57;;;;;;;7.70;1.60;;;13.10;99.90;;;;;;6238821;22;20028;-79
2022/10/03 00:06:51;;;;;;;9.05;1.95;;;13.10;99.90;;;;;;6238402;22;20424;-78
2022/10/03 00:09:23;;;;;;;7.88;1.98;;;13.20;99.90;;;;;;6238795;22;20019;-78
2022/10/03 00:12:02;;;;;;;6.38;1.52;;;13.20;99.90;;;;;;6264350;22;20015;-78
2022/10/03 00:14:53;;;;;;;11.05;2.47;;;13.20;99.90;;;;;;6239127;22;20073;-79
2022/10/03 00:17:45;;;;;;;7.85;1.98;;;13.30;99.90;;;;;;6237894;22;20455;-78
2022/10/03 00:20:33;;;;;;;9.32;2.03;;;13.30;99.90;;;;;;6234268;22;20024;-78
2022/10/03 00:23:07;;;;;;;6.25;1.60;;;13.40;99.90;;;;;;6239630;22;20081;-79
2022/10/03 00:25:51;;;;;;;9.02;1.95;;;13.40;99.90;;;;;;6262833;22;20019;-79
2022/10/03 00:28:31;;;;;;;7.25;1.40;;;13.40;99.90;;;;;;6238638;22;20016;-78
2022/10/03 00:31:15;;;;;;;7.35;2.00;;;13.50;99.90;;;;;;6263277;22;20026;-78
2022/10/03 00:33:56;;;;;;;8.25;1.30;;;13.40;99.90;;;;;;6238396;22;20034;-78
2022/10/03 00:36:34;;;;;;;11.45;1.88;;;13.50;99.90;;;;;;6263737;22;20117;-78
2022/10/03 00:39:27;;;;;;;9.43;1.90;;;13.50;99.90;;;;;;6265032;22;20012;-78
2022/10/03 00:42:31;;;;;;;6.55;1.38;;;13.40;99.90;;;;;;6239006;22;20066;-78
2022/10/03 00:45:34;;;;;;;13.82;2.17;;;13.60;99.90;;;;;;6264587;22;20431;-79
2022/10/03 00:48:12;;;;;;;8.15;1.48;;;13.60;99.90;;;;;;6266688;22;20127;-78
2022/10/03 00:51:04;;;;;;;10.95;1.70;;;13.60;99.90;;;;;;6265437;22;20022;-79
2022/10/03 00:53:46;;;;;;;13.10;2.08;;;13.60;99.90;;;;;;6239777;22;20100;-79
2022/10/03 00:56:38;;;;;;;8.90;1.65;;;13.50;99.90;;;;;;6241087;22;20015;-78
2022/10/03 00:59:28;;;;;;;7.53;1.35;;;14.00;99.90;;;;;;6240520;22;20058;-79
2022/10/03 01:01:54;;;;;;;9.20;1.60;;;13.50;99.90;;;;;;6239873;22;20026;-78
2022/10/03 01:04:46;;;;;;;10.48;1.60;;;13.50;99.90;;;;;;6264838;22;20024;-79
2022/10/03 01:07:32;;;;;;;7.25;1.40;;;13.50;99.90;;;;;;6266226;22;20016;-78
2022/10/03 01:10:03;;;;;;;7.55;2.00;;;13.40;99.90;;;;;;6266201;22;20097;-79
2022/10/03 01:13:07;;;;;;;11.13;1.50;;;13.40;99.90;;;;;;6239931;22;20030;-79
2022/10/03 01:15:50;;;;;;;6.68;1.70;;;13.30;99.90;;;;;;6264853;22;20042;-79
2022/10/03 01:18:49;;;;;;;6.65;1.40;;;13.30;99.90;;;;;;6225736;22;20016;-79
2022/10/03 01:21:47;;;;;;;5.32;1.17;;;13.20;99.90;;;;;;6175135;22;20042;-79
2022/10/03 01:24:36;;;;;;;5.72;1.20;;;13.20;99.90;;;;;;6238940;22;20059;-79
2022/10/03 01:27:10;;;;;;;10.40;1.48;;;13.20;99.90;;;;;;6214232;22;20011;-79
2022/10/03 01:33:02;;;;;;;8.50;1.60;;;13.20;99.90;;;;;;6239674;22;20016;-78
2022/10/03 01:35:35;;;;;;;5.82;1.58;;;13.10;99.90;;;;;;6239723;22;20490;-79
2022/10/03 01:38:28;;;;;;;5.45;1.23;;;13.10;99.90;;;;;;6214350;22;20059;-79
2022/10/03 01:41:12;;;;;;;12.23;1.67;;;13.10;99.90;;;;;;6215058;22;20078;-78
2022/10/03 01:43:54;;;;;;;9.15;1.67;;;13.10;99.90;;;;;;6214234;22;20098;-79
2022/10/03 01:46:33;;;;;;;9.30;2.03;;;13.00;99.90;;;;;;6214453;22;20355;-78
2022/10/03 01:49:26;;;;;;;7.18;1.45;;;13.00;99.90;;;;;;6239193;22;20051;-78
2022/10/03 01:52:20;;;;;;;7.28;1.40;;;13.00;99.90;;;;;;6215269;22;20019;-79
2022/10/03 01:54:53;;;;;;;6.88;1.25;;;13.00;99.90;;;;;;6238332;22;20027;-79
2022/10/03 01:57:31;;;;;;;6.57;1.40;;;13.00;99.90;;;;;;6214475;22;20077;-79
2022/10/03 02:00:03;;;;;;;6.30;1.50;;;12.90;99.90;;;;;;6214338;22;20394;-78
2022/10/03 02:02:37;;;;;;;6.53;1.35;;;12.90;99.90;;;;;;6239754;22;20047;-79
2022/10/03 02:05:18;;;;;;;11.43;1.50;;;12.90;99.90;;;;;;6267736;22;20287;-78
2022/10/03 02:08:22;;;;;;;6.63;1.30;;;12.80;99.90;;;;;;6254430;22;20181;-79
2022/10/03 02:11:08;;;;;;;7.60;1.40;;;12.80;99.90;;;;;;6219663;22;20464;-78
2022/10/03 02:13:35;;;;;;;8.18;1.33;;;12.80;99.90;;;;;;6238355;22;20027;-79
2022/10/03 02:16:06;;;;;;;9.40;1.25;;;12.70;99.90;;;;;;6214497;22;20015;-78
2022/10/03 02:18:57;;;;;;;11.57;1.80;;;12.70;99.90;;;;;;6229595;22;20055;-78
2022/10/03 02:21:30;;;;;;;5.75;1.25;;;12.70;99.90;;;;;;6240773;22;20062;-78
2022/10/03 02:24:14;;;;;;;9.48;1.40;;;12.60;99.90;;;;;;6239620;22;20019;-79
2022/10/03 02:27:11;;;;;;;5.30;1.27;;;12.50;99.90;;;;;;6264725;22;20624;-79
2022/10/03 02:29:55;;;;;;;8.23;1.42;;;12.50;99.90;;;;;;6237894;22;20027;-79
2022/10/03 02:32:45;;;;;;;6.60;1.30;;;12.50;99.90;;;;;;6265288;22;20039;-78
2022/10/03 02:35:20;;;;;;;4.43;1.42;;;12.40;99.90;;;;;;6238811;22;20069;-78
2022/10/03 02:38:12;;;;;;;4.20;1.50;;;12.40;99.90;;;;;;6240106;22;20020;-78
2022/10/03 02:40:47;;;;;;;7.30;1.33;;;12.30;99.90;;;;;;6239490;22;20103;-79
2022/10/03 02:43:52;;;;;;;10.15;1.83;;;12.30;99.90;;;;;;6265424;22;20201;-79
2022/10/03 02:46:41;;;;;;;4.57;1.40;;;12.30;99.90;;;;;;6218788;22;20022;-79
2022/10/03 02:49:25;;;;;;;5.70;1.10;;;12.20;99.90;;;;;;6264188;22;20354;-78
2022/10/03 02:51:56;;;;;;;6.68;1.50;;;12.20;99.90;;;;;;6265104;22;20015;-78
2022/10/03 02:54:52;;;;;;;7.20;1.30;;;12.20;99.90;;;;;;6238309;22;20099;-79
2022/10/03 02:57:32;;;;;;;8.38;2.03;;;12.10;99.90;;;;;;6264857;22;20012;-78
2022/10/03 03:00:16;;;;;;;6.13;1.20;;;12.10;99.90;;;;;;6239503;22;20023;-78
2022/10/03 03:03:00;;;;;;;6.28;1.38;;;12.00;99.90;;;;;;6264415;22;20312;-78
2022/10/03 03:05:35;;;;;;;5.55;1.70;;;12.00;99.90;;;;;;6264120;22;20022;-78
2022/10/03 03:08:13;;;;;;;4.47;1.30;;;11.90;99.90;;;;;;6239892;22;20020;-78
2022/10/03 03:11:01;;;;;;;6.15;1.48;;;11.90;99.90;;;;;;6264263;22;20022;-78
2022/10/03 03:13:35;;;;;;;5.63;1.50;;;11.80;99.90;;;;;;6265842;22;20085;-78
2022/10/03 03:16:22;;;;;;;5.20;1.10;;;11.80;99.90;;;;;;6238684;22;20031;-78
2022/10/03 03:18:52;;;;;;;;;;;11.70;99.90;;;;;;6239690;22;20338;-78
2022/10/03 03:21:36;;;;;;;6.22;1.38;;;11.70;99.90;;;;;;6264653;22;19915;-78
2022/10/03 03:24:34;;;;;;;4.43;1.25;;;11.70;99.90;;;;;;6239625;22;20022;-79
2022/10/03 03:27:27;;;;;;;6.55;1.70;;;11.60;99.90;;;;;;6224049;22;20020;-79
2022/10/03 03:30:04;;;;;;;10.25;1.52;;;11.60;99.90;;;;;;6238137;22;20024;-79
2022/10/03 03:33:07;;;;;;;6.78;1.35;;;11.50;99.90;;;;;;6239885;22;20081;-78
2022/10/03 03:35:36;;;;;;;4.78;1.10;;;11.50;99.90;;;;;;6238897;22;20026;-78
2022/10/03 03:38:20;;;;;;;5.25;1.13;;;11.50;99.90;;;;;;6265244;22;20111;-78
2022/10/03 03:41:13;;;;;;;4.05;1.00;;;11.40;99.90;;;;;;6264331;22;20034;-78
2022/10/03 03:43:54;;;;;;;3.72;1.00;;;11.30;99.90;;;;;;6238909;22;20028;-78
2022/10/03 03:46:37;;;;;;;6.40;1.20;;;11.30;99.90;;;;;;6239054;22;20016;-79
2022/10/03 03:49:21;;;;;;;4.57;1.13;;;11.30;99.90;;;;;;6264671;22;20074;-78
2022/10/03 03:51:50;;;;;;;4.65;1.20;;;11.30;99.90;;;;;;6264329;22;20834;-79
2022/10/03 03:54:34;;;;;;;4.97;1.00;;;11.20;99.90;;;;;;6264299;22;20016;-78
2022/10/03 03:57:20;;;;;;;5.20;1.27;;;11.20;99.90;;;;;;6264666;22;20038;-78
2022/10/03 04:00:24;;;;;;;2.65;0.93;;;11.20;99.90;;;;;;6264167;22;20024;-79
2022/10/03 04:03:26;;;;;;;5.80;1.70;;;11.20;99.90;;;;;;6176661;23;20012;-79
2022/10/03 04:05:52;;;;;;;6.38;2.00;;;11.10;99.90;;;;;;6263725;22;20022;-79
2022/10/03 04:08:43;;;;;;;4.43;1.17;;;11.10;99.90;;;;;;6239350;22;20019;-79
2022/10/03 04:11:37;;;;;;;4.57;1.23;;;11.10;99.90;;;;;;6238557;22;20023;-79
2022/10/03 04:14:05;;;;;;;3.53;0.80;;;11.00;99.90;;;;;;6264212;22;20130;-79
2022/10/03 04:19:44;;;;;;;5.22;1.15;;;11.00;99.90;;;;;;6264796;22;20028;-79
2022/10/03 04:22:29;;;;;;;;;;;10.90;99.90;;;;;;6265198;22;20015;-80
2022/10/03 04:25:19;;;;;;;5.30;1.25;;;10.80;99.90;;;;;;6239620;22;19923;-80
2022/10/03 04:27:53;;;;;;;3.88;1.02;;;10.80;99.90;;;;;;6239781;22;20019;-80
2022/10/03 04:30:34;;;;;;;3.78;1.20;;;10.70;99.90;;;;;;6240848;22;20046;-79
2022/10/03 04:33:12;;;;;;;3.92;1.20;;;10.70;99.90;;;;;;6240232;22;20024;-80
2022/10/03 04:35:53;;;;;;;3.75;1.10;;;10.70;99.90;;;;;;6265315;22;20370;-80
2022/10/03 04:38:38;;;;;;;5.22;1.38;;;10.60;99.90;;;;;;6241544;22;20070;-80
2022/10/03 04:41:40;;;;;;;3.90;1.40;;;10.60;99.90;;;;;;6241026;22;20270;-79
2022/10/03 04:44:28;;;;;;;4.72;1.45;;;10.50;99.90;;;;;;6197815;22;20551;-79
2022/10/03 04:47:04;;;;;;;9.00;1.33;;;10.50;99.90;;;;;;6240827;22;20073;-80
2022/10/03 04:50:09;;;;;;;4.18;1.30;;;10.40;99.90;;;;;;6268139;22;20087;-80
2022/10/03 04:53:15;;;;;;;3.00;1.00;;;10.40;99.90;;;;;;6223426;22;20020;-80
2022/10/03 04:56:23;;;;;;;4.05;1.17;;;10.30;99.90;;;;;;6224345;22;20094;-80
2022/10/03 04:59:07;;;;;;;6.35;1.48;;;10.30;99.90;;;;;;6268062;22;20027;-80
2022/10/03 05:01:44;;;;;;;3.22;1.42;;;10.20;99.90;;;;;;6243008;22;20020;-81
2022/10/03 05:04:34;;;;;;;3.95;1.27;;;10.20;99.90;;;;;;6268132;22;20017;-80
2022/10/03 05:07:15;;;;;;;4.00;1.45;;;10.20;99.90;;;;;;6269225;22;20018;-80
2022/10/03 05:10:02;;;;;;;4.30;1.25;;;10.20;99.90;;;;;;6243140;22;20027;-81
2022/10/03 05:12:39;;;;;;;7.65;1.35;;;10.10;99.90;;;;;;6267925;22;20015;-80
2022/10/03 05:15:22;;;;;;;5.70;1.42;;;10.10;99.90;;;;;;6267951;22;20077;-81
2022/10/03 05:18:09;;;;;;;4.38;1.25;;;10.00;99.90;;;;;;6241668;22;20020;-81
2022/10/03 05:20:54;;;;;;;4.97;1.65;;;10.00;99.90;;;;;;6242239;22;20027;-80
2022/10/03 05:23:43;;;;;;;4.13;1.15;;;10.00;99.90;;;;;;6241975;22;20015;-79
2022/10/03 05:26:49;;;;;;;5.93;1.50;;;10.00;99.90;;;;;;6267611;22;20090;-80
2022/10/03 05:29:33;;;;;;;4.05;1.20;;;9.90;99.90;;;;;;6242498;22;20089;-81
2022/10/03 05:32:12;;;;;;;3.72;1.20;;;9.90;99.90;;;;;;6242666;22;20030;-80
2022/10/03 05:34:57;;;;;;;6.78;1.70;;;9.80;99.90;;;;;;6268383;22;20016;-81
2022/10/03 05:37:41;;;;;;;8.73;1.83;;;9.80;99.90;;;;;;6243328;22;20077;-81
2022/10/03 05:40:25;;;;;;;3.88;1.40;;;9.80;99.90;;;;;;6242120;22;20466;-81
2022/10/03 05:42:59;;;;;;;3.45;1.40;;;9.80;99.90;;;;;;6250012;22;20071;-80
2022/10/03 05:45:29;;;;;;;5.75;2.08;;;9.80;99.90;;;;;;6271748;22;20051;-80
2022/10/03 05:48:13;;;;;;;4.22;1.30;;;9.80;99.90;;;;;;6241844;22;20451;-80
2022/10/03 05:50:58;;;;;;;2.92;1.20;;;9.90;99.90;;;;;;6266860;22;20051;-78
2022/10/03 05:53:24;;;;;;;4.07;1.30;;;9.80;99.90;;;;;;6241871;22;20325;-81
2022/10/03 05:55:52;;;;;;;6.65;2.17;;;9.70;99.90;;;;;;6241572;22;20103;-79
2022/10/03 05:58:49;;;;;;;5.18;1.50;;;9.80;99.90;;;;;;6241520;22;20027;-79
2022/10/03 06:01:38;;;;;;;7.55;1.67;;;9.80;99.90;;;;;;6267355;22;20020;-78
2022/10/03 06:04:39;;;;;;;4.07;1.63;;;9.80;99.90;;;;;;6241715;22;20081;-79
2022/10/03 06:07:29;;;;;;;8.27;2.10;;;9.80;99.90;;;;;;6241217;22;20466;-79
2022/10/03 06:10:13;;;;;;;5.35;1.80;;;9.70;99.90;;;;;;6266277;22;20577;-80
2022/10/03 06:13:01;;;;;;;5.68;1.52;;;9.80;99.90;;;;;;6241588;22;20023;-78
2022/10/03 06:15:57;;;;;;;5.50;1.85;;;9.80;99.90;;;;;;6267051;22;20019;-79
2022/10/03 06:18:41;;;;;;;5.20;2.43;;;9.80;99.90;;;;;;6267499;22;20016;-79
2022/10/03 06:21:22;;;;;;;4.18;1.73;;;9.80;99.90;;;;;;6242188;22;20050;-79
2022/10/03 06:24:19;;;;;;;5.15;1.75;;;9.80;99.90;;;;;;6266990;22;20019;-80
2022/10/03 06:26:53;;;;;;;;;;;9.80;99.90;;;;;;6266806;22;20015;-80
2022/10/03 06:30:02;;;;;;;4.90;1.45;;;9.80;99.90;;;;;;6267907;22;19919;-81
2022/10/03 06:32:50;;;;;;;6.65;1.95;;;9.80;99.90;;;;;;6200283;22;20019;-80
2022/10/03 06:35:40;;;;;;;6.93;1.58;;;9.80;99.90;;;;;;6269724;22;20450;-80
2022/10/03 06:38:35;;;;;;;5.90;1.95;;;9.80;99.90;;;;;;6242814;22;20051;-80
2022/10/03 06:41:16;;;;;;;7.25;1.88;;;9.90;99.90;;;;;;6266704;22;20038;-80
2022/10/03 06:44:02;;;;;;;8.55;2.05;;;9.90;99.90;;;;;;6266942;22;20054;-80
2022/10/03 06:47:02;;;;;;;9.43;2.15;;;9.90;99.90;;;;;;6266210;22;20022;-79
2022/10/03 06:49:27;;;;;;;7.80;1.70;;;10.00;99.90;;;;;;6241974;22;20047;-79
2022/10/03 06:52:28;;;;;;;5.95;2.05;;;10.00;99.90;;;;;;6266481;22;20019;-80
2022/10/03 06:55:10;;;;;;;9.00;2.50;;;10.00;99.90;;;;;;6266781;22;20055;-80
2022/10/03 06:58:10;;;;;;;5.32;1.98;;;10.10;99.90;;;;;;6241458;22;20103;-80
2022/10/03 07:01:11;;;;;;;9.73;1.70;;;10.20;99.90;;;;;;6267991;22;20089;-80
2022/10/03 07:03:46;;;;;;;5.60;2.33;;;10.40;99.90;;;;;;6241821;22;20019;-80
2022/10/03 07:06:37;;;;;;;7.53;1.27;;;10.50;99.90;;;;;;6240177;22;20020;-80
2022/10/03 07:09:30;;;;;;;7.53;2.03;;;10.70;99.90;;;;;;6240158;22;20027;-80
2022/10/03 07:12:33;;;;;;;4.93;1.80;;;11.10;99.90;;;;;;6241097;22;20031;-78
2022/10/03 07:15:39;;;;;;;4.78;1.52;;;11.20;99.90;;;;;;6241903;22;20015;-78
2022/10/03 07:18:26;;;;;;;6.82;1.80;;;11.40;99.90;;;;;;6198388;22;20033;-79
2022/10/03 07:21:04;;;;;;;11.85;2.28;;;11.60;99.90;;;;;;6266279;22;20027;-77
2022/10/03 07:24:08;;;;;;;8.55;1.75;;;11.90;99.90;;;;;;6243945;22;20477;-80
2022/10/03 07:27:07;;;;;;;6.93;1.55;;;12.00;99.90;;;;;;6266978;22;20027;-79
2022/10/03 07:29:52;;;;;;;9.45;1.73;;;12.30;99.90;;;;;;6267358;22;20481;-81
2022/10/03 07:32:39;;;;;;;7.05;1.70;;;12.40;99.90;;;;;;6241522;22;20027;-80
2022/10/03 07:38:59;;;;;;;8.50;2.13;;;12.60;99.90;;;;;;6266364;22;20024;-78
2022/10/03 07:42:03;;;;;;;6.47;1.75;;;12.80;99.90;;;;;;6240523;22;20023;-79
2022/10/03 07:44:56;;;;;;;5.75;1.30;;;12.90;99.90;;;;;;6242865;22;20073;-78
2022/10/03 07:47:59;;;;;;;5.80;1.52;;;13.00;99.90;;;;;;6244513;22;20015;-79
2022/10/03 07:50:40;;;;;;;8.27;1.35;;;13.20;99.90;;;;;;6244731;22;20780;-79
2022/10/03 07:53:28;;;;;;;10.48;1.70;;;13.30;99.90;;;;;;6269458;22;20042;-80
2022/10/03 07:56:40;;;;;;;6.38;1.80;;;13.50;99.90;;;;;;6243501;22;20023;-80
2022/10/03 07:59:45;;;;;;;8.75;1.70;;;13.60;99.90;;;;;;6246557;22;20086;-79
2022/10/03 08:02:42;;;;;;;6.85;1.73;;;13.80;99.90;;;;;;6210488;22;20442;-79
2022/10/03 08:05:53;;;;;;;9.75;1.70;;;14.10;99.90;;;;;;6244946;22;20024;-79
2022/10/03 08:09:26;;;;;;;6.40;1.48;;;14.30;99.90;;;;;;6271735;22;20055;-79
2022/10/03 08:12:07;;;;;;;9.85;2.00;;;14.60;99.90;;;;;;6116750;23;20052;-79
2022/10/03 08:14:41;;;;;;;10.02;1.98;;;14.80;99.90;;;;;;6179291;23;20021;-80
2022/10/03 08:17:20;;;;;;;6.05;1.73;;;14.90;99.90;;;;;;6224663;22;20024;-80
2022/10/03 08:19:56;;;;;;;8.15;2.03;;;15.10;99.90;;;;;;6221251;22;20024;-80
2022/10/03 08:22:48;;;;;;;7.30;1.70;;;15.20;99.90;;;;;;6246314;22;20527;-80
2022/10/03 08:25:32;;;;;;;7.05;1.35;;;15.30;99.90;;;;;;6220374;22;20031;-80
2022/10/03 08:28:43;;;;;;;8.85;1.70;;;15.40;99.90;;;;;;6245601;22;20094;-79
2022/10/03 08:31:42;;;;;;;9.32;1.60;;;15.40;99.90;;;;;;6199263;22;20324;-80
2022/10/03 08:34:30;;;;;;;4.60;1.25;;;15.60;99.90;;;;;;6245625;22;20019;-79
2022/10/03 08:37:08;;;;;;;6.32;2.15;;;15.70;99.90;;;;;;6220421;22;20022;-80
2022/10/03 08:39:37;;;;;;;12.18;1.75;;;15.80;99.90;;;;;;6247144;22;20085;-80
2022/10/03 08:42:46;;;;;;;6.07;1.50;;;15.90;99.90;;;;;;6245312;22;20505;-79
2022/10/03 08:45:24;;;;;;;7.95;1.50;;;16.10;99.90;;;;;;6220112;22;20016;-80
2022/10/03 08:48:11;;;;;;;8.45;1.75;;;16.10;99.90;;;;;;6246601;22;20026;-80
2022/10/03 08:51:15;;;;;;;7.75;1.80;;;16.20;99.90;;;;;;6247207;22;20431;-80
2022/10/03 08:54:08;;;;;;;6.18;1.75;;;16.30;99.90;;;;;;6221081;22;20045;-80
2022/10/03 08:56:56;;;;;;;6.18;1.30;;;16.40;99.90;;;;;;6214196;22;20018;-81
2022/10/03 08:59:44;;;;;;;7.47;1.38;;;16.40;99.90;;;;;;6245258;22;20016;-81
2022/10/03 09:02:27;;;;;;;7.95;1.33;;;16.50;99.90;;;;;;6219386;22;20020;-81
2022/10/03 09:05:12;;;;;;;6.07;1.33;;;16.50;99.90;;;;;;6219835;22;20359;-81
2022/10/03 09:08:07;;;;;;;5.95;1.38;;;16.40;99.90;;;;;;6240611;22;20030;-81
2022/10/03 09:10:54;;;;;;;8.07;1.50;;;16.30;99.90;;;;;;6218856;22;20018;-80
2022/10/03 09:13:57;;;;;;;7.72;1.55;;;16.20;99.90;;;;;;6216757;22;20016;-81
2022/10/03 09:16:50;;;;;;;7.45;1.10;;;16.20;99.90;;;;;;6218159;22;20020;-80
2022/10/03 09:19:51;;;;;;;6.82;1.75;;;16.20;99.90;;;;;;6223127;22;20015;-79
2022/10/03 09:22:38;;;;;;;7.40;1.50;;;16.20;99.90;;;;;;6251298;22;20016;-79
2022/10/03 09:25:20;;;;;;;8.00;1.65;;;16.10;99.90;;;;;;6216246;22;20015;-78
2022/10/03 09:28:07;;;;;;;6.07;1.40;;;16.20;99.90;;;;;;6216888;22;20118;-79
2022/10/03 09:31:02;;;;;;;6.40;1.42;;;16.20;99.90;;;;;;6216927;22;20019;-79
2022/10/03 09:33:47;;;;;;;8.52;1.83;;;16.20;99.90;;;;;;6217271;22;20016;-79
2022/10/03 09:36:19;;;;;;;5.00;1.45;;;16.30;99.90;;;;;;6215419;22;20030;-79
2022/10/03 09:38:54;;;;;;;5.45;1.50;;;16.40;99.90;;;;;;6244187;22;20103;-78
2022/10/03 09:41:40;;;;;;;7.93;1.53;;;16.50;99.90;;;;;;6219060;22;20016;-80
2022/10/03 09:44:15;;;;;;;;;;;16.70;99.90;;;;;;6219113;22;20336;-80
2022/10/03 09:47:21;;;;;;;5.70;1.58;;;16.80;99.90;;;;;;6219489;22;19958;-79
2022/10/03 09:50:18;;;;;;;4.38;1.30;;;16.90;99.90;;;;;;6241791;22;20058;-80
2022/10/03 09:53:11;;;;;;;6.45;1.52;;;16.80;99.90;;;;;;6217002;22;20145;-79
2022/10/03 09:56:08;;;;;;;7.10;1.20;;;16.70;99.90;;;;;;6243456;22;20030;-79
2022/10/03 09:58:53;;;;;;;6.82;1.42;;;16.70;99.90;;;;;;6245520;22;20105;-80
2022/10/03 10:01:42;;;;;;;7.43;1.70;;;16.80;99.90;;;;;;6217846;22;20055;-80
2022/10/03 10:04:38;;;;;;;5.85;1.30;;;16.80;99.90;;;;;;6242820;22;20049;-80
2022/10/03 10:07:35;;;;;;;7.47;1.67;;;16.80;99.90;;;;;;6217451;22;20015;-80
2022/10/03 10:10:19;;;;;;;;;;;16.80;99.90;;;;;;6241980;22;20099;-80
2022/10/03 10:13:03;;;;;;;7.97;1.45;;;16.80;99.90;;;;;;6241396;22;20384;-78
2022/10/03 10:16:08;;;;;;;5.75;1.30;;;16.80;99.90;;;;;;6242210;22;20023;-78
2022/10/03 10:18:40;;;;;;;5.25;1.50;;;16.80;99.90;;;;;;6232384;22;20030;-79
2022/10/03 10:21:27;;;;;;;5.93;1.27;;;16.80;99.90;;;;;;6267677;22;20382;-79
2022/10/03 10:24:11;;;;;;;6.47;1.23;;;16.80;99.90;;;;;;6266961;22;20019;-79
2022/10/03 10:27:07;;;;;;;4.65;1.40;;;16.90;99.90;;;;;;6241717;22;20019;-79
2022/10/03 10:29:59;;;;;;;7.80;1.55;;;16.80;99.90;;;;;;6242622;22;20065;-79
2022/10/03 10:32:52;;;;;;;3.85;1.25;;;16.80;99.90;;;;;;6240435;22;20030;-78
2022/10/03 10:35:39;;;;;;;7.20;1.38;;;16.90;99.90;;;;;;6267045;22;20447;-79
2022/10/03 10:38:39;;;;;;;5.93;1.05;;;16.90;99.90;;;;;;6242383;22;20020;-78
2022/10/03 10:41:42;;;;;;;5.95;1.20;;;16.90;99.90;;;;;;6268655;22;20019;-78
2022/10/03 10:44:27;;;;;;;8.55;1.48;;;17.00;99.90;;;;;;6269096;22;20494;-80
2022/10/03 10:47:26;;;;;;;5.32;1.48;;;17.10;99.90;;;;;;6269431;22;20518;-82
2022/10/03 10:50:35;;;;;;;7.40;1.45;;;17.20;99.90;;;;;;6271016;22;20051;-80
2022/10/03 10:53:39;;;;;;;4.68;1.30;;;17.30;99.90;;;;;;6246020;22;20026;-80
2022/10/03 10:56:29;;;;;;;5.30;1.50;;;17.40;99.90;;;;;;6245021;22;20066;-80
2022/10/03 10:59:32;;;;;;;5.25;1.30;;;17.60;99.90;;;;;;6245347;22;20398;-80
2022/10/03 11:02:30;;;;;;;6.18;1.60;;;17.90;99.90;;;;;;6244800;22;20022;-80
2022/10/03 11:05:21;;;;;;;5.63;1.50;;;18.20;99.90;;;;;;6270278;22;20020;-81
2022/10/03 11:08:24;;;;;;;7.60;1.45;;;18.40;99.90;;;;;;6270662;22;20494;-81
2022/10/03 11:11:29;;;;;;;5.93;1.38;;;18.50;99.90;;;;;;6269853;22;20030;-81
2022/10/03 11:14:19;;;;;;;4.65;1.45;;;18.50;99.90;;;;;;6244223;22;20451;-81
2022/10/03 11:17:14;;;;;;;5.82;1.30;;;18.70;99.90;;;;;;6270407;22;20020;-80
2022/10/03 11:20:37;;;;;;;4.82;1.70;;;19.00;99.90;;;;;;6210601;22;20026;-80
2022/10/03 11:23:25;;;;;;;6.82;1.73;;;19.40;99.90;;;;;;6158084;23;20350;-80
2022/10/03 11:26:24;;;;;;;3.42;1.17;;;20.00;99.90;;;;;;6181695;23;20452;-79
2022/10/03 11:29:27;;;;;;;7.75;1.65;;;20.00;99.90;;;;;;6241006;22;20020;-80
2022/10/03 11:32:04;;;;;;;6.80;1.20;;;20.00;99.90;;;;;;6270659;22;20026;-80
2022/10/03 11:35:12;;;;;;;3.65;1.13;;;20.10;99.90;;;;;;6268367;22;20051;-80
2022/10/03 11:37:47;;;;;;;;;;;20.40;99.90;;;;;;6200758;22;20031;-81
2022/10/03 11:40:35;;;;;;;7.28;1.27;;;20.70;99.90;;;;;;6269738;22;19984;-80
2022/10/03 11:43:49;;;;;;;4.25;1.30;;;21.00;99.90;;;;;;6271061;22;20411;-82
2022/10/03 11:46:41;;;;;;;8.52;1.42;;;21.40;99.90;;;;;;6270640;22;20466;-79
2022/10/03 11:49:41;;;;;;;5.55;1.20;;;22.10;99.90;;;;;;6269181;22;20460;-79
2022/10/03 11:52:26;;;;;;;7.57;1.33;;;22.70;99.90;;;;;;6244393;22;20066;-79
2022/10/03 11:55:22;;;;;;;5.20;0.90;;;22.90;99.90;;;;;;6269231;22;20468;-80
2022/10/03 11:58:12;;;;;;;4.25;0.98;;;22.90;99.90;;;;;;6244548;22;20019;-80
2022/10/03 12:00:41;;;;;;;4.55;1.10;;;23.00;99.90;;;;;;6244832;22;20107;-80
2022/10/03 12:03:29;;;;;;;3.33;1.15;;;22.90;99.90;;;;;;6269291;22;20019;-80
2022/10/03 12:09:16;;;;;;;3.58;1.42;;;23.10;99.90;;;;;;6270507;22;20023;-80
2022/10/03 12:11:51;;;;;;;8.15;1.30;;;23.30;99.90;;;;;;6269140;22;20019;-80
2022/10/03 12:14:27;;;;;;;4.63;1.23;;;23.40;99.90;;;;;;6268784;22;20080;-80
2022/10/03 12:17:21;;;;;;;3.78;1.10;;;23.40;99.90;;;;;;6243917;22;20091;-80
2022/10/03 12:19:55;;;;;;;4.07;1.10;;;23.20;99.90;;;;;;6218746;22;20028;-81
2022/10/03 12:22:36;;;;;;;4.72;1.00;;;22.80;99.90;;;;;;6243963;22;20011;-80
2022/10/03 12:25:15;;;;;;;4.00;1.17;;;22.50;99.90;;;;;;6242956;22;20016;-80
2022/10/03 12:28:20;;;;;;;6.70;1.42;;;22.50;99.90;;;;;;6241373;22;20099;-80
2022/10/03 12:30:56;;;;;;;5.22;1.05;;;22.20;99.90;;;;;;6241400;22;20027;-80
2022/10/03 12:33:49;;;;;;;9.52;1.38;;;22.10;99.90;;;;;;6216138;22;20125;-80
2022/10/03 12:36:24;;;;;;;5.13;1.10;;;21.90;99.90;;;;;;6215328;22;20129;-79
2022/10/03 12:39:04;;;;;;;4.45;1.25;;;21.70;99.90;;;;;;6217461;22;20077;-79
2022/10/03 12:42:01;;;;;;;5.40;1.25;;;21.50;99.90;;;;;;6244467;22;20038;-82
2022/10/03 12:44:52;;;;;;;5.22;1.27;;;21.50;99.90;;;;;;6245979;22;20149;-81
2022/10/03 12:47:33;;;;;;;7.40;1.10;;;21.30;99.90;;;;;;6221577;22;20023;-81
2022/10/03 12:50:15;;;;;;;5.45;1.20;;;21.10;99.90;;;;;;6223392;22;20353;-80
2022/10/03 12:53:04;;;;;;;6.10;1.15;;;20.80;99.90;;;;;;6222566;22;20027;-79
2022/10/03 12:55:37;;;;;;;4.75;1.20;;;20.60;99.90;;;;;;6227586;22;20225;-80
2022/10/03 12:58:20;;;;;;;4.63;1.30;;;20.40;99.90;;;;;;6255313;22;20015;-80
2022/10/03 13:00:55;;;;;;;4.18;1.35;;;20.40;99.90;;;;;;6246238;22;20049;-80
2022/10/03 13:03:48;;;;;;;2.97;1.00;;;20.20;99.90;;;;;;6220064;22;20024;-81
2022/10/03 13:06:34;;;;;;;6.03;1.40;;;20.00;99.90;;;;;;6219331;22;20012;-81
2022/10/03 13:09:31;;;;;;;4.75;1.00;;;19.90;99.90;;;;;;6243165;22;20019;-81
2022/10/03 13:12:15;;;;;;;6.35;1.20;;;19.90;99.90;;;;;;6219477;22;20020;-81
2022/10/03 13:15:09;;;;;;;3.50;1.30;;;19.90;99.90;;;;;;6216974;22;20402;-81
2022/10/03 13:17:50;;;;;;;7.40;1.63;;;19.90;99.90;;;;;;6246735;22;20065;-81
2022/10/03 13:20:32;;;;;;;10.35;1.70;;;19.80;99.90;;;;;;6267462;22;20019;-80
2022/10/03 13:23:10;;;;;;;8.48;1.73;;;19.80;99.90;;;;;;6269405;22;20011;-82
2022/10/03 13:26:09;;;;;;;7.38;1.45;;;19.70;99.90;;;;;;6241167;22;20087;-81
2022/10/03 13:28:46;;;;;;;9.15;1.52;;;19.70;99.90;;;;;;6232966;22;20027;-83
2022/10/03 13:31:26;;;;;;;5.15;1.27;;;19.60;99.90;;;;;;6268200;22;20022;-83
2022/10/03 13:34:03;;;;;;;4.88;1.38;;;19.60;99.90;;;;;;6267208;22;20023;-81
2022/10/03 13:36:41;;;;;;;3.35;1.08;;;19.50;99.90;;;;;;6267597;22;20026;-81
2022/10/03 13:39:24;;;;;;;3.42;1.10;;;19.40;99.90;;;;;;6267753;22;20020;-82
2022/10/03 13:42:09;;;;;;;4.53;0.77;;;19.40;99.90;;;;;;6242752;22;20142;-81
2022/10/03 13:44:35;;;;;;;3.40;1.10;;;19.30;99.90;;;;;;6242968;22;20020;-80
2022/10/03 13:47:16;;;;;;;4.15;1.10;;;19.30;99.90;;;;;;6243425;22;20457;-80
2022/10/03 13:50:01;;;;;;;3.67;0.60;;;19.40;99.90;;;;;;6241502;22;20020;-81
2022/10/03 13:52:38;;;;;;;3.97;1.10;;;19.40;99.90;;;;;;6244406;22;20018;-81
2022/10/03 13:55:27;;;;;;;3.38;0.82;;;19.40;99.90;;;;;;6242688;22;20019;-82
2022/10/03 13:58:17;;;;;;;3.92;1.00;;;19.40;99.90;;;;;;6242450;22;20015;-80
2022/10/03 14:01:03;;;;;;;4.70;0.93;;;19.30;99.90;;;;;;6268006;22;20041;-80
2022/10/03 14:04:04;;;;;;;4.03;0.95;;;19.20;99.90;;;;;;6241918;22;20401;-80
2022/10/03 14:06:38;;;;;;;4.18;1.23;;;19.10;99.90;;;;;;6243309;22;20051;-80
2022/10/03 14:09:38;;;;;;;4.82;1.35;;;19.10;99.90;;;;;;6267638;22;20071;-79
2022/10/03 14:12:50;;;;;;;4.38;1.17;;;19.20;99.90;;;;;;6262151;22;20055;-80
2022/10/03 14:15:19;;;;;;;2.65;0.93;;;19.10;99.90;;;;;;6242744;22;20026;-80
2022/10/03 14:17:57;;;;;;;3.00;0.93;;;19.10;99.90;;;;;;6242154;22;20086;-81
2022/10/03 14:21:17;;;;;;;4.00;1.08;;;19.10;99.90;;;;;;6241408;22;20024;-81
2022/10/03 14:24:09;;;;;;;4.72;0.90;;;18.90;99.90;;;;;;6268513;22;20157;-80
2022/10/03 14:26:42;;;;;;;3.20;1.00;;;19.10;99.90;;;;;;6223912;22;20515;-80
2022/10/03 14:29:34;;;;;;;2.15;0.75;;;18.60;99.90;;;;;;6243258;22;20020;-80
2022/10/03 14:32:13;;;;;;;3.80;1.15;;;18.60;99.90;;;;;;6242697;22;20016;-80
2022/10/03 14:34:53;;;;;;;4.63;0.95;;;18.40;99.90;;;;;;6241021;22;20152;-79
2022/10/03 14:37:52;;;;;;;3.42;1.00;;;18.30;99.90;;;;;;6242835;22;20012;-80
2022/10/03 14:40:34;;;;;;;4.57;1.10;;;18.20;99.90;;;;;;6244085;22;20054;-80
2022/10/03 14:43:26;;;;;;;4.03;0.90;;;18.20;99.90;;;;;;6269002;22;20016;-80
2022/10/03 14:45:54;;;;;;;4.78;1.27;;;18.20;99.90;;;;;;6199288;22;20054;-80